Time;durP1;ratioP1;P1;durP2;ratioP2;P2;SDS_P1;SDS_P2;PMS_P1;PMS_P2;Temp;Humidity;BMP_temperature;BMP_pressure;BME280_temperature;BME280_humidity;BME280_pressure;Samples;Min_cycle;Max_cycle;Signal;HPM_P1;HPM_P2
2023/10/13 00:01:51;;;;;;;54.13;24.73;;;13.60;99.90;;;;;;4794005;29;20142;-58
2023/10/13 00:04:21;;;;;;;52.53;24.27;;;13.80;99.90;;;;;;4793153;29;20052;-59
2023/10/13 00:06:47;;;;;;;56.03;24.55;;;13.80;99.90;;;;;;4794014;29;20058;-58
2023/10/13 00:09:14;;;;;;;56.63;24.73;;;13.60;99.90;;;;;;4794428;29;20059;-57
2023/10/13 00:11:47;;;;;;;57.33;24.77;;;13.80;99.90;;;;;;4793960;29;20081;-58
2023/10/13 00:14:16;;;;;;;62.67;24.35;;;13.60;99.90;;;;;;4794576;29;20543;-58
2023/10/13 00:17:00;;;;;;;57.25;25.77;;;13.80;99.90;;;;;;4794389;29;20039;-58
2023/10/13 00:19:38;;;;;;;61.70;25.45;;;14.00;99.90;;;;;;4793888;29;20076;-58
2023/10/13 00:22:11;;;;;;;56.95;25.33;;;14.10;99.90;;;;;;4792628;30;20615;-58
2023/10/13 00:24:48;;;;;;;68.22;27.05;;;13.80;99.90;;;;;;4793704;29;20055;-58
2023/10/13 00:27:32;;;;;;;61.88;27.08;;;14.10;99.90;;;;;;4794464;29;20059;-58
2023/10/13 00:30:33;;;;;;;64.13;26.10;;;14.00;99.90;;;;;;4794566;29;20091;-58
2023/10/13 00:32:59;;;;;;;68.78;27.80;;;14.10;99.90;;;;;;4793899;29;20058;-58
2023/10/13 00:35:29;;;;;;;65.78;27.48;;;14.20;99.90;;;;;;4793080;29;20062;-57
2023/10/13 00:38:03;;;;;;;66.68;27.45;;;13.90;99.90;;;;;;4793896;29;20138;-57
2023/10/13 00:43:42;;;;;;;63.53;27.17;;;14.30;99.90;;;;;;4794007;29;20088;-57
2023/10/13 00:48:33;;;;;;;61.10;27.80;;;14.50;99.90;;;;;;4794286;29;20086;-57
2023/10/13 00:51:02;;;;;;;64.20;28.75;;;14.40;99.90;;;;;;4792312;29;20055;-57
2023/10/13 00:53:33;;;;;;;60.35;26.30;;;14.20;99.90;;;;;;4792297;29;20082;-57
2023/10/13 00:56:07;;;;;;;67.32;28.30;;;14.30;99.90;;;;;;4793716;29;20393;-57
2023/10/13 00:58:38;;;;;;;63.47;26.55;;;14.40;99.90;;;;;;4793543;29;20082;-57
2023/10/13 01:01:22;;;;;;;62.05;27.63;;;14.40;99.90;;;;;;4793059;29;20047;-57
2023/10/13 01:03:49;;;;;;;61.50;26.38;;;14.50;99.90;;;;;;4793541;29;20036;-57
2023/10/13 01:06:19;;;;;;;60.35;26.23;;;14.50;99.90;;;;;;4793649;29;20119;-57
2023/10/13 01:08:51;;;;;;;56.60;25.30;;;14.70;99.90;;;;;;4792149;29;20071;-57
2023/10/13 01:11:19;;;;;;;;;;;14.90;99.90;;;;;;4794022;29;20077;-57
2023/10/13 01:13:50;;;;;;;57.47;25.08;;;14.70;99.90;;;;;;4793454;29;19925;-57
2023/10/13 01:16:17;;;;;;;51.50;25.05;;;14.90;99.90;;;;;;4793508;29;20063;-57
2023/10/13 01:18:49;;;;;;;55.67;24.63;;;14.70;99.90;;;;;;4793578;29;20055;-57
2023/10/13 01:21:20;;;;;;;60.03;26.05;;;14.60;99.90;;;;;;4793672;29;20043;-57
2023/10/13 01:23:47;;;;;;;59.47;24.00;;;14.70;99.90;;;;;;4792355;29;20054;-57
2023/10/13 01:26:21;;;;;;;63.40;25.40;;;14.80;99.90;;;;;;4792908;29;20066;-58
2023/10/13 01:28:50;;;;;;;55.38;24.83;;;14.70;99.90;;;;;;4791693;30;20055;-58
2023/10/13 01:31:25;;;;;;;54.80;26.55;;;15.00;99.90;;;;;;4793842;29;20119;-58
2023/10/13 01:33:54;;;;;;;58.00;25.95;;;14.80;99.90;;;;;;4792005;29;20055;-58
2023/10/13 01:36:23;;;;;;;58.90;24.55;;;15.20;99.90;;;;;;4792208;29;20665;-58
2023/10/13 01:38:50;;;;;;;59.83;25.70;;;14.80;99.90;;;;;;4793428;29;20055;-58
2023/10/13 01:41:16;;;;;;;66.40;25.75;;;15.20;99.90;;;;;;4793265;29;20043;-58
2023/10/13 01:43:42;;;;;;;62.08;25.55;;;15.00;99.90;;;;;;4793455;29;20050;-58
2023/10/13 01:46:09;;;;;;;58.65;24.92;;;15.30;99.90;;;;;;4793126;29;20424;-58
2023/10/13 01:48:39;;;;;;;54.58;24.15;;;15.20;99.90;;;;;;4793516;29;20119;-58
2023/10/13 01:51:06;;;;;;;54.28;23.33;;;15.00;99.90;;;;;;4809882;29;20058;-58
2023/10/13 01:53:31;;;;;;;53.72;22.67;;;15.30;99.90;;;;;;4809698;29;20055;-57
2023/10/13 01:55:58;;;;;;;53.13;23.38;;;14.90;99.90;;;;;;4810941;29;20046;-58
2023/10/13 01:58:26;;;;;;;51.83;22.20;;;15.00;99.90;;;;;;4809856;29;20139;-58
2023/10/13 02:00:52;;;;;;;53.35;23.77;;;14.90;99.90;;;;;;4811333;29;20061;-58
2023/10/13 02:03:18;;;;;;;52.28;23.13;;;15.10;99.90;;;;;;4811060;29;20047;-57
2023/10/13 02:05:48;;;;;;;54.33;22.33;;;15.50;99.90;;;;;;4811523;29;20110;-57
2023/10/13 02:08:27;;;;;;;49.35;22.92;;;15.00;99.90;;;;;;4810473;29;20065;-58
2023/10/13 02:10:57;;;;;;;46.20;21.45;;;15.60;99.90;;;;;;4811105;29;20115;-57
2023/10/13 02:13:24;;;;;;;48.25;20.98;;;15.40;99.90;;;;;;4814516;29;20039;-58
2023/10/13 02:15:56;;;;;;;43.10;20.20;;;15.00;99.90;;;;;;4814026;29;20047;-57
2023/10/13 02:18:34;;;;;;;42.65;19.65;;;15.30;99.90;;;;;;4813346;29;20057;-58
2023/10/13 02:21:12;;;;;;;44.17;19.55;;;15.00;99.90;;;;;;4814165;29;20050;-58
2023/10/13 02:23:43;;;;;;;39.78;17.73;;;15.20;99.90;;;;;;4814125;29;20081;-57
2023/10/13 02:26:14;;;;;;;43.70;18.23;;;15.70;99.90;;;;;;4813948;29;20118;-57
2023/10/13 02:28:40;;;;;;;36.72;18.30;;;15.10;99.90;;;;;;4813783;29;20051;-57
2023/10/13 02:31:07;;;;;;;38.13;17.52;;;15.40;99.90;;;;;;4814078;29;20357;-58
2023/10/13 02:33:33;;;;;;;36.50;16.90;;;15.20;99.90;;;;;;4808275;29;20040;-57
2023/10/13 02:36:05;;;;;;;35.75;17.90;;;15.10;99.90;;;;;;4796238;29;20051;-58
2023/10/13 02:41:05;;;;;;;38.13;16.88;;;15.40;99.90;;;;;;4795670;29;20497;-57
2023/10/13 02:43:37;;;;;;;35.30;17.17;;;15.50;99.90;;;;;;4794661;30;20059;-57
2023/10/13 02:46:04;;;;;;;41.00;17.58;;;15.10;99.90;;;;;;4795428;29;20070;-58
2023/10/13 02:48:39;;;;;;;36.72;16.45;;;15.20;99.90;;;;;;4796268;29;20058;-55
2023/10/13 02:51:15;;;;;;;36.40;16.77;;;15.40;99.90;;;;;;4795957;29;20059;-57
2023/10/13 02:53:42;;;;;;;39.30;16.65;;;15.80;99.90;;;;;;4795552;29;20603;-57
2023/10/13 02:56:08;;;;;;;40.55;16.65;;;15.70;99.90;;;;;;4795412;29;20043;-57
2023/10/13 02:58:43;;;;;;;32.05;16.58;;;15.30;99.90;;;;;;4795592;29;20051;-57
2023/10/13 03:01:16;;;;;;;37.35;16.58;;;15.90;99.90;;;;;;4795873;29;20516;-57
2023/10/13 03:03:51;;;;;;;39.17;17.25;;;15.10;99.90;;;;;;4795736;29;20059;-57
2023/10/13 03:06:21;;;;;;;35.03;16.30;;;15.10;99.90;;;;;;4795506;29;20129;-57
2023/10/13 03:08:47;;;;;;;36.28;16.88;;;15.30;99.90;;;;;;4795530;29;20177;-58
2023/10/13 03:11:13;;;;;;;33.17;16.45;;;15.70;99.90;;;;;;4795306;29;20043;-57
2023/10/13 03:13:44;;;;;;;40.33;18.50;;;15.80;99.90;;;;;;4795350;29;20053;-57
2023/10/13 03:16:16;;;;;;;47.75;17.98;;;15.50;99.90;;;;;;4795020;29;20070;-59
2023/10/13 03:18:55;;;;;;;38.15;17.88;;;15.30;99.90;;;;;;4795313;29;20059;-61
2023/10/13 03:21:31;;;;;;;39.38;18.13;;;15.50;99.90;;;;;;4795443;29;20047;-62
2023/10/13 03:24:04;;;;;;;41.92;18.67;;;15.40;99.90;;;;;;4794336;29;20074;-61
2023/10/13 03:26:34;;;;;;;43.10;18.85;;;15.60;99.90;;;;;;4795017;29;20047;-62
2023/10/13 03:29:03;;;;;;;46.38;19.70;;;15.80;99.90;;;;;;4794835;29;20059;-60
2023/10/13 03:31:29;;;;;;;43.88;20.00;;;15.40;99.90;;;;;;4794925;29;20087;-61
2023/10/13 03:33:59;;;;;;;50.80;20.42;;;15.50;99.90;;;;;;4795201;29;20089;-61
2023/10/13 03:39:30;;;;;;;47.08;22.80;;;15.90;99.90;;;;;;4792790;30;20055;-62
2023/10/13 03:41:59;;;;;;;48.65;23.70;;;15.30;99.90;;;;;;4791889;30;20094;-62
2023/10/13 03:44:30;;;;;;;47.95;22.00;;;15.90;99.90;;;;;;4793832;29;20106;-61
2023/10/13 03:46:55;;;;;;;49.28;21.92;;;15.40;99.90;;;;;;4794734;29;20098;-61
2023/10/13 03:49:21;;;;;;;46.80;22.73;;;16.10;99.90;;;;;;4793428;29;20051;-61
2023/10/13 03:51:48;;;;;;;47.25;21.70;;;15.40;99.90;;;;;;4794630;29;20075;-61
2023/10/13 03:54:16;;;;;;;47.05;21.25;;;15.30;99.90;;;;;;4794531;29;20333;-61
2023/10/13 03:56:46;;;;;;;48.38;21.10;;;15.50;99.90;;;;;;4794707;29;20047;-61
2023/10/13 04:01:49;;;;;;;42.25;20.98;;;15.80;99.90;;;;;;4794721;29;20055;-62
2023/10/13 04:04:33;;;;;;;39.58;18.70;;;15.90;99.90;;;;;;4794652;29;20054;-64
2023/10/13 04:07:39;;;;;;;37.78;19.27;;;16.00;99.90;;;;;;4780001;30;20059;-64
2023/10/13 04:15:17;;;;;;;38.08;16.88;;;15.30;99.90;;;;;;4792560;29;20055;-63
2023/10/13 04:17:48;;;;;;;36.83;16.57;;;15.60;99.90;;;;;;4794419;29;20457;-63
2023/10/13 04:20:26;;;;;;;37.17;16.65;;;15.60;99.90;;;;;;4794035;29;20043;-62
2023/10/13 04:39:09;;;;;;;36.53;16.75;;;16.00;99.90;;;;;;4794194;29;20054;-60
2023/10/13 04:49:35;;;;;;;36.17;16.48;;;15.60;99.90;;;;;;4793908;29;20091;-61
2023/10/13 04:52:13;;;;;;;41.08;16.65;;;16.10;99.90;;;;;;4792473;29;20051;-62
2023/10/13 04:54:53;;;;;;;38.05;17.25;;;15.80;99.90;;;;;;4793266;29;20055;-63
2023/10/13 05:51:47;;;;;;;17.42;8.43;;;15.40;99.90;;;;;;4775207;30;20063;-66
2023/10/13 06:30:00;;;;;;;16.65;8.07;;;15.40;99.90;;;;;;4774347;30;20066;-62
2023/10/13 06:32:27;;;;;;;14.25;7.65;;;15.60;99.90;;;;;;4774415;30;20063;-60
2023/10/13 06:35:05;;;;;;;13.10;7.60;;;15.80;99.90;;;;;;4789748;30;20059;-61
2023/10/13 06:37:32;;;;;;;13.50;7.65;;;15.40;99.90;;;;;;4792511;29;20051;-62
2023/10/13 06:40:06;;;;;;;17.02;7.50;;;15.70;99.90;;;;;;4792299;29;20062;-63
2023/10/13 06:42:34;;;;;;;15.43;7.65;;;15.30;99.90;;;;;;4791807;29;20455;-63
2023/10/13 06:45:03;;;;;;;14.68;7.20;;;15.20;99.90;;;;;;4791924;29;20119;-65
2023/10/13 06:47:29;;;;;;;12.75;6.45;;;15.30;99.90;;;;;;4792208;29;20051;-66
2023/10/13 06:49:56;;;;;;;14.55;7.07;;;15.90;99.90;;;;;;4791998;29;20047;-65
2023/10/13 06:52:22;;;;;;;12.68;6.53;;;15.70;99.90;;;;;;4791953;30;20079;-65
2023/10/13 06:54:53;;;;;;;14.30;6.53;;;15.30;99.90;;;;;;4789988;30;20112;-66
2023/10/13 06:57:21;;;;;;;12.85;7.07;;;15.80;99.90;;;;;;4792049;29;20083;-65
2023/10/13 06:59:48;;;;;;;12.48;7.10;;;15.80;99.90;;;;;;4790554;30;20572;-65
2023/10/13 07:02:23;;;;;;;12.27;6.70;;;15.40;99.90;;;;;;4791749;29;20103;-64
2023/10/13 07:04:56;;;;;;;11.27;6.38;;;15.60;99.90;;;;;;4791663;29;20051;-65
2023/10/13 07:07:23;;;;;;;15.15;7.28;;;15.50;99.90;;;;;;4791651;29;20099;-64
2023/10/13 07:09:55;;;;;;;12.45;6.93;;;16.00;99.90;;;;;;4792085;29;20520;-64
2023/10/13 07:12:27;;;;;;;11.27;7.07;;;15.70;99.90;;;;;;4791707;29;20599;-63
2023/10/13 07:15:27;;;;;;;14.73;6.65;;;15.90;99.90;;;;;;4791639;29;20051;-62
2023/10/13 07:17:55;;;;;;;15.45;6.85;;;16.10;99.90;;;;;;4790199;29;20582;-62
2023/10/13 07:20:24;;;;;;;15.27;7.38;;;15.80;99.90;;;;;;4791433;29;20051;-62
2023/10/13 07:23:11;;;;;;;16.48;7.07;;;15.90;99.90;;;;;;4791658;29;20047;-62
2023/10/13 07:25:40;;;;;;;15.27;7.55;;;15.60;99.90;;;;;;4790037;30;20071;-62
2023/10/13 07:28:09;;;;;;;13.52;7.00;;;15.70;99.90;;;;;;4790846;29;20051;-61
2023/10/13 07:31:08;;;;;;;16.50;6.93;;;15.70;99.90;;;;;;4786954;30;20424;-61
2023/10/13 07:33:34;;;;;;;14.68;7.07;;;15.70;99.90;;;;;;4790654;29;20432;-61
2023/10/13 07:36:11;;;;;;;16.95;7.45;;;15.70;99.90;;;;;;4790748;30;20134;-61
2023/10/13 07:38:42;;;;;;;19.20;7.40;;;16.10;99.90;;;;;;4791400;29;20051;-61
2023/10/13 07:41:08;;;;;;;17.30;7.18;;;15.70;99.90;;;;;;4790269;29;20101;-61
2023/10/13 07:43:34;;;;;;;14.32;7.22;;;15.80;99.90;;;;;;4790937;29;20059;-62
2023/10/13 07:46:06;;;;;;;17.20;6.88;;;16.00;99.90;;;;;;4790454;30;20047;-67
2023/10/13 07:48:33;;;;;;;;;;;16.00;99.90;;;;;;4791360;30;20119;-67
2023/10/13 07:51:02;;;;;;;18.45;6.65;;;15.80;99.90;;;;;;4790829;29;20572;-66
2023/10/13 07:53:34;;;;;;;20.73;7.55;;;15.70;99.90;;;;;;4783918;30;20062;-66
2023/10/13 07:56:05;;;;;;;12.27;7.13;;;15.90;99.90;;;;;;4788894;30;20335;-64
2023/10/13 07:58:34;;;;;;;15.15;7.07;;;15.60;99.90;;;;;;4787059;30;20058;-63
2023/10/13 08:01:16;;;;;;;16.90;7.40;;;15.80;99.90;;;;;;4790874;29;20054;-63
2023/10/13 08:03:45;;;;;;;20.00;7.90;;;15.80;99.90;;;;;;4788655;30;20059;-62
2023/10/13 08:06:26;;;;;;;15.68;7.15;;;15.70;99.90;;;;;;4789851;29;20058;-61
2023/10/13 08:09:05;;;;;;;16.63;6.88;;;15.50;99.90;;;;;;4790209;29;20051;-61
2023/10/13 08:11:30;;;;;;;14.52;6.78;;;15.60;99.90;;;;;;4789226;29;20328;-62
2023/10/13 08:14:10;;;;;;;16.67;7.85;;;15.50;99.90;;;;;;4791371;29;20127;-62
2023/10/13 08:19:15;;;;;;;14.00;6.88;;;15.90;99.90;;;;;;4790510;29;20121;-61
2023/10/13 08:21:52;;;;;;;14.25;6.53;;;15.90;99.90;;;;;;4790833;29;20047;-60
2023/10/13 08:37:35;;;;;;;18.58;7.97;;;15.60;99.90;;;;;;4790205;29;20047;-58
2023/10/13 08:48:12;;;;;;;17.25;7.72;;;15.70;99.90;;;;;;4790212;29;20082;-58
2023/10/13 08:56:14;;;;;;;19.65;8.13;;;16.40;99.90;;;;;;4789478;29;20063;-58
2023/10/13 08:59:33;;;;;;;20.83;8.55;;;15.90;99.90;;;;;;4789681;29;20223;-58
2023/10/13 09:01:45;;;;;;;17.60;9.02;;;15.90;99.90;;;;;;4788897;29;20587;-58
2023/10/13 09:13:00;;;;;;;16.70;8.73;;;16.60;99.90;;;;;;4777926;29;20094;-58
2023/10/13 09:18:12;;;;;;;19.65;9.90;;;16.30;99.90;;;;;;4778736;29;20055;-57
2023/10/13 09:23:09;;;;;;;21.25;10.63;;;16.50;99.90;;;;;;4782055;29;21189;-58
2023/10/13 09:25:58;;;;;;;16.02;10.02;;;16.80;99.90;;;;;;4782047;29;20115;-57
2023/10/13 09:28:27;;;;;;;20.95;10.45;;;16.80;99.90;;;;;;4781178;29;20056;-57
2023/10/13 09:30:58;;;;;;;15.50;9.27;;;16.90;99.90;;;;;;4782469;29;20206;-57
2023/10/13 09:33:32;;;;;;;18.85;9.32;;;17.10;99.90;;;;;;4781185;29;20051;-57
2023/10/13 09:35:59;;;;;;;16.00;9.40;;;17.30;99.90;;;;;;4780221;29;20084;-57
2023/10/13 09:38:28;;;;;;;21.63;10.02;;;17.40;99.90;;;;;;4782108;29;20520;-57
2023/10/13 09:40:57;;;;;;;17.70;10.27;;;17.20;99.90;;;;;;4781031;29;20059;-57
2023/10/13 09:43:25;;;;;;;19.55;9.95;;;17.30;99.90;;;;;;4781679;29;20063;-57
2023/10/13 09:46:02;;;;;;;18.25;9.43;;;17.50;99.90;;;;;;4781272;29;20077;-57
2023/10/13 09:48:45;;;;;;;16.00;10.05;;;17.40;99.90;;;;;;4781573;29;20519;-57
2023/10/13 09:51:19;;;;;;;15.73;9.70;;;17.50;99.90;;;;;;4783115;29;20051;-57
2023/10/13 09:54:09;;;;;;;16.60;9.27;;;17.70;99.90;;;;;;4783557;29;20065;-57
2023/10/13 09:56:55;;;;;;;16.35;9.13;;;17.80;99.90;;;;;;4784031;29;20043;-58
2023/10/13 09:59:40;;;;;;;15.68;9.10;;;17.60;99.90;;;;;;4785043;29;20124;-57
2023/10/13 10:02:09;;;;;;;14.98;7.95;;;17.90;99.90;;;;;;4783522;29;20154;-57
2023/10/13 10:04:44;;;;;;;16.13;8.55;;;17.80;99.90;;;;;;4783394;29;20058;-57
2023/10/13 10:07:10;;;;;;;15.90;8.98;;;17.80;99.90;;;;;;4783375;29;20132;-57
2023/10/13 10:09:39;;;;;;;15.90;8.10;;;18.10;99.90;;;;;;4784163;29;20044;-57
2023/10/13 10:12:37;;;;;;;15.95;7.75;;;17.90;99.90;;;;;;4784239;29;20081;-58
2023/10/13 10:15:13;;;;;;;14.75;7.68;;;18.10;99.90;;;;;;4784055;29;20051;-57
2023/10/13 10:17:43;;;;;;;16.58;7.55;;;18.00;99.90;;;;;;4783994;29;20063;-57
2023/10/13 10:20:19;;;;;;;15.85;7.32;;;18.00;99.90;;;;;;4783419;29;20063;-57
2023/10/13 10:22:59;;;;;;;17.25;7.22;;;18.10;99.90;;;;;;4784272;29;20058;-56
2023/10/13 10:25:34;;;;;;;14.10;6.85;;;18.00;99.90;;;;;;4783856;29;20047;-57
2023/10/13 10:28:05;;;;;;;15.65;7.28;;;18.10;99.90;;;;;;4783687;29;20054;-57
2023/10/13 10:30:38;;;;;;;16.92;6.10;;;18.10;99.90;;;;;;4784069;29;20061;-57
2023/10/13 10:33:23;;;;;;;13.52;5.95;;;18.20;99.90;;;;;;4782773;29;20059;-57
2023/10/13 10:36:00;;;;;;;13.25;5.57;;;18.40;99.90;;;;;;4783754;29;20102;-57
2023/10/13 10:41:00;;;;;;;18.00;6.80;;;18.70;99.90;;;;;;4781936;29;20086;-57
2023/10/13 10:43:26;;;;;;;;;;;18.70;99.90;;;;;;4798025;29;20800;-58
2023/10/13 10:45:59;;;;;;;17.25;6.22;;;18.70;99.90;;;;;;4783769;29;19939;-57
2023/10/13 10:48:31;;;;;;;14.45;6.32;;;18.80;99.90;;;;;;4782670;29;20504;-57
2023/10/13 10:50:58;;;;;;;14.32;6.28;;;18.80;99.90;;;;;;4783709;29;20058;-57
2023/10/13 10:53:43;;;;;;;16.40;5.85;;;18.80;99.90;;;;;;4783305;29;20055;-57
2023/10/13 10:58:59;;;;;;;13.93;5.60;;;19.00;99.90;;;;;;4784026;29;20062;-57
2023/10/13 11:01:46;;;;;;;12.20;5.75;;;18.90;99.90;;;;;;4784029;29;20066;-57
2023/10/13 11:07:00;;;;;;;17.15;5.97;;;19.10;99.90;;;;;;4781738;29;20051;-57
2023/10/13 11:12:06;;;;;;;14.38;5.47;;;19.50;99.90;;;;;;4783550;29;20078;-57
2023/10/13 11:14:32;;;;;;;16.33;5.10;;;19.40;99.90;;;;;;4783675;29;20045;-57
2023/10/13 11:17:05;;;;;;;14.88;5.97;;;19.40;99.90;;;;;;4783709;29;20051;-57
2023/10/13 11:19:39;;;;;;;18.73;6.13;;;19.30;99.90;;;;;;4783637;29;20058;-57
2023/10/13 11:22:33;;;;;;;15.07;5.63;;;19.20;99.90;;;;;;4783758;29;20066;-57
2023/10/13 11:25:01;;;;;;;15.88;5.53;;;19.10;99.90;;;;;;4783017;29;20055;-57
2023/10/13 11:27:44;;;;;;;12.63;5.35;;;19.10;99.90;;;;;;4783331;29;20051;-57
2023/10/13 11:30:20;;;;;;;14.50;4.72;;;19.20;99.90;;;;;;4781945;29;20060;-57
2023/10/13 11:32:56;;;;;;;12.07;5.20;;;19.30;99.90;;;;;;4782797;29;20043;-57
2023/10/13 11:35:28;;;;;;;15.35;6.10;;;19.40;99.90;;;;;;4782967;29;20066;-57
2023/10/13 11:38:03;;;;;;;14.05;5.25;;;19.50;99.90;;;;;;4782549;29;20092;-57
2023/10/13 11:41:06;;;;;;;16.30;5.90;;;19.50;99.90;;;;;;4782857;29;20044;-58
2023/10/13 11:43:35;;;;;;;13.25;5.50;;;19.50;99.90;;;;;;4781826;29;20080;-57
2023/10/13 11:48:36;;;;;;;16.17;5.82;;;19.20;99.90;;;;;;4783228;29;20147;-58
2023/10/13 11:51:08;;;;;;;13.40;5.47;;;19.00;99.90;;;;;;4782684;29;20266;-58
2023/10/13 11:53:35;;;;;;;14.85;5.63;;;18.90;99.90;;;;;;4782043;29;20459;-58
2023/10/13 11:56:11;;;;;;;14.27;5.65;;;18.90;99.90;;;;;;4782268;29;20096;-58
2023/10/13 11:58:37;;;;;;;12.88;5.13;;;18.80;99.90;;;;;;4781644;29;20047;-60
2023/10/13 12:06:35;;;;;;;14.70;6.60;;;18.30;99.90;;;;;;4782106;29;20087;-60
2023/10/13 12:11:45;;;;;;;17.13;6.90;;;18.30;99.90;;;;;;4782130;29;20055;-60
2023/10/13 12:14:27;;;;;;;13.98;6.93;;;18.30;99.90;;;;;;4782348;29;20306;-59
2023/10/13 12:16:53;;;;;;;17.92;7.13;;;18.30;99.90;;;;;;4782351;29;20110;-59
2023/10/13 12:19:29;;;;;;;15.75;5.95;;;18.50;99.90;;;;;;4782048;29;20066;-59
2023/10/13 12:21:55;;;;;;;14.55;6.60;;;18.50;99.90;;;;;;4782474;29;20431;-58
2023/10/13 12:27:18;;;;;;;15.55;6.18;;;18.60;99.90;;;;;;4781243;29;20059;-58
2023/10/13 12:29:51;;;;;;;;;;;18.60;99.90;;;;;;4782547;29;20133;-58
2023/10/13 12:32:25;;;;;;;12.98;6.03;;;18.60;99.90;;;;;;4781967;29;20437;-58
2023/10/13 12:51:50;;;;;;;16.88;8.07;;;18.00;99.90;;;;;;4782473;29;20485;-63
2023/10/13 12:54:19;;;;;;;16.52;8.55;;;18.10;99.90;;;;;;4779029;29;20124;-62
2023/10/13 12:56:46;;;;;;;17.48;8.05;;;18.10;99.90;;;;;;4782048;29;20088;-61
2023/10/13 12:59:15;;;;;;;18.33;7.72;;;18.00;99.90;;;;;;4782162;29;20078;-60
2023/10/13 13:01:44;;;;;;;17.65;7.53;;;18.00;99.90;;;;;;4782236;29;20082;-61
2023/10/13 13:04:20;;;;;;;15.20;8.13;;;17.90;99.90;;;;;;4781978;29;20055;-60
2023/10/13 13:06:50;;;;;;;21.63;8.23;;;18.00;99.90;;;;;;4781296;29;20051;-60
2023/10/13 13:09:25;;;;;;;16.85;8.18;;;17.90;99.90;;;;;;4781920;29;20075;-61
2023/10/13 13:11:52;;;;;;;19.85;7.82;;;18.00;99.90;;;;;;4779449;29;20047;-63
2023/10/13 13:14:17;;;;;;;19.45;8.63;;;18.00;99.90;;;;;;4781729;29;20051;-64
2023/10/13 13:16:48;;;;;;;17.42;8.52;;;17.80;99.90;;;;;;4780158;29;20051;-64
2023/10/13 13:19:14;;;;;;;16.88;8.45;;;17.80;99.90;;;;;;4781455;29;20055;-64
2023/10/13 13:21:40;;;;;;;17.33;8.77;;;17.80;99.90;;;;;;4781575;29;20056;-62
2023/10/13 13:24:13;;;;;;;17.20;9.02;;;17.60;99.90;;;;;;4780919;29;20086;-63
2023/10/13 13:26:40;;;;;;;18.00;9.13;;;17.70;99.90;;;;;;4781531;29;20055;-62
2023/10/13 13:29:09;;;;;;;17.00;8.60;;;17.60;99.90;;;;;;4781988;29;20051;-62
2023/10/13 13:31:41;;;;;;;18.38;8.93;;;17.60;99.90;;;;;;4781359;29;20073;-62
2023/10/13 13:34:09;;;;;;;;;;;17.70;99.90;;;;;;4782424;29;20050;-61
2023/10/13 13:36:35;;;;;;;19.65;8.73;;;17.60;99.90;;;;;;4780920;29;19936;-60
2023/10/13 13:39:01;;;;;;;17.75;9.25;;;17.50;99.90;;;;;;4781518;29;20047;-59
2023/10/13 13:41:27;;;;;;;21.65;8.80;;;17.50;99.90;;;;;;4781396;29;20381;-60
2023/10/13 13:43:56;;;;;;;25.48;9.10;;;17.50;99.90;;;;;;4780655;29;21439;-62
2023/10/13 13:46:27;;;;;;;18.58;8.98;;;17.50;99.90;;;;;;4781763;29;20085;-62
2023/10/13 13:49:06;;;;;;;14.02;7.78;;;17.50;99.90;;;;;;4781099;29;20054;-60
2023/10/13 13:51:33;;;;;;;17.38;8.50;;;17.60;99.90;;;;;;4779966;29;20059;-60
2023/10/13 13:53:59;;;;;;;21.85;9.45;;;17.70;99.90;;;;;;4781106;29;20928;-60
2023/10/13 13:56:27;;;;;;;21.95;9.50;;;17.60;99.90;;;;;;4780704;29;20048;-60
2023/10/13 13:58:54;;;;;;;18.33;9.85;;;17.70;99.90;;;;;;4780347;29;20126;-61
2023/10/13 14:01:28;;;;;;;18.35;8.43;;;17.60;99.90;;;;;;4781412;29;20070;-59
2023/10/13 14:04:02;;;;;;;20.65;8.57;;;17.70;99.90;;;;;;4780036;29;20079;-59
2023/10/13 14:06:28;;;;;;;16.70;8.75;;;17.80;99.90;;;;;;4780502;29;20062;-59
2023/10/13 14:09:32;;;;;;;19.13;7.50;;;17.80;99.90;;;;;;4784226;29;20572;-58
2023/10/13 14:14:57;;;;;;;16.48;7.65;;;17.90;99.90;;;;;;4783659;29;20085;-58
2023/10/13 14:17:29;;;;;;;18.70;7.85;;;17.90;99.90;;;;;;4784599;29;20166;-58
2023/10/13 14:19:58;;;;;;;;;;;18.00;99.90;;;;;;4785301;29;20050;-58
2023/10/13 14:22:24;;;;;;;16.25;7.68;;;18.00;99.90;;;;;;4785250;29;19936;-58
2023/10/13 14:24:55;;;;;;;15.80;7.78;;;18.00;99.90;;;;;;4782390;29;20055;-57
2023/10/13 14:27:23;;;;;;;17.42;8.30;;;18.00;99.90;;;;;;4784316;29;20150;-58
2023/10/13 14:29:56;;;;;;;17.35;7.55;;;18.00;99.90;;;;;;4784183;29;20564;-58
2023/10/13 14:32:25;;;;;;;14.98;7.95;;;18.00;99.90;;;;;;4783911;29;20043;-57
2023/10/13 14:34:57;;;;;;;18.65;7.40;;;18.10;99.90;;;;;;4784201;29;20051;-58
2023/10/13 14:37:32;;;;;;;;;;;18.00;99.90;;;;;;4784572;29;20055;-58
2023/10/13 14:39:59;;;;;;;16.17;7.60;;;18.00;99.90;;;;;;4783795;29;19929;-58
2023/10/13 14:42:28;;;;;;;17.95;7.75;;;18.10;99.90;;;;;;4784157;29;20043;-57
2023/10/13 14:44:57;;;;;;;15.38;6.95;;;18.10;99.90;;;;;;4783176;29;20516;-57
2023/10/13 14:47:25;;;;;;;16.90;7.45;;;18.20;99.90;;;;;;4784125;29;20051;-58
2023/10/13 14:49:55;;;;;;;14.95;7.30;;;18.40;99.90;;;;;;4783641;29;20059;-57
2023/10/13 14:52:22;;;;;;;14.15;6.85;;;18.30;99.90;;;;;;4784031;29;20501;-58
2023/10/13 14:54:55;;;;;;;19.65;7.53;;;18.40;99.90;;;;;;4783238;29;20063;-57
2023/10/13 14:57:25;;;;;;;16.50;7.20;;;18.30;99.90;;;;;;4783916;29;20051;-58
2023/10/13 14:59:54;;;;;;;16.10;6.88;;;18.40;99.90;;;;;;4784521;29;20453;-58
2023/10/13 15:02:20;;;;;;;21.15;8.35;;;18.30;99.90;;;;;;4783730;29;20047;-57
2023/10/13 15:04:49;;;;;;;16.23;8.48;;;18.30;99.90;;;;;;4783796;29;20043;-57
2023/10/13 15:07:17;;;;;;;17.30;6.68;;;18.40;99.90;;;;;;4783148;29;20049;-57
2023/10/13 15:09:43;;;;;;;16.38;7.43;;;18.50;99.90;;;;;;4783582;29;20882;-58
2023/10/13 15:12:10;;;;;;;15.90;6.95;;;18.40;99.90;;;;;;4783481;29;20102;-58
2023/10/13 15:14:42;;;;;;;14.88;7.53;;;18.40;99.90;;;;;;4783514;29;20039;-57
2023/10/13 15:17:09;;;;;;;;;;;18.40;99.90;;;;;;4783788;29;20047;-58
2023/10/13 15:19:42;;;;;;;19.85;7.82;;;18.20;99.90;;;;;;4782215;29;19930;-59
2023/10/13 15:22:16;;;;;;;20.73;7.20;;;18.30;99.90;;;;;;4783285;29;20051;-59
2023/10/13 15:24:57;;;;;;;18.67;7.10;;;18.10;99.90;;;;;;4783087;29;20073;-59
2023/10/13 15:27:23;;;;;;;19.63;7.60;;;18.20;99.90;;;;;;4783307;29;20062;-59
2023/10/13 15:29:50;;;;;;;19.35;7.25;;;18.20;99.90;;;;;;4782290;29;20043;-59
2023/10/13 15:35:00;;;;;;;15.40;6.82;;;18.20;99.90;;;;;;4783219;29;20062;-58
2023/10/13 15:37:27;;;;;;;16.20;6.63;;;18.20;99.90;;;;;;4783225;29;20515;-58
2023/10/13 15:39:53;;;;;;;15.48;6.88;;;18.30;99.90;;;;;;4783422;29;20058;-58
2023/10/13 15:42:20;;;;;;;21.27;6.68;;;18.20;99.90;;;;;;4783442;29;20047;-58
2023/10/13 15:44:48;;;;;;;17.75;6.53;;;18.30;99.90;;;;;;4783392;29;20047;-58
2023/10/13 15:47:14;;;;;;;15.35;6.35;;;18.20;99.90;;;;;;4783048;29;20047;-58
2023/10/13 15:49:42;;;;;;;20.58;6.97;;;18.20;99.90;;;;;;4783028;29;20382;-58
2023/10/13 15:52:09;;;;;;;18.02;7.30;;;18.20;99.90;;;;;;4783015;29;20059;-58
2023/10/13 15:54:35;;;;;;;23.95;8.05;;;18.20;99.90;;;;;;4782823;29;20071;-58
2023/10/13 15:57:01;;;;;;;21.55;6.63;;;18.20;99.90;;;;;;4782899;29;20063;-57
2023/10/13 15:59:26;;;;;;;14.38;5.70;;;18.20;99.90;;;;;;4783123;29;20077;-57
2023/10/13 16:01:57;;;;;;;16.95;5.95;;;18.20;99.90;;;;;;4782934;29;20043;-57
2023/10/13 16:04:23;;;;;;;18.52;6.75;;;18.20;99.90;;;;;;4783182;29;20074;-58
2023/10/13 16:06:51;;;;;;;17.30;6.63;;;18.20;99.90;;;;;;4781695;29;20074;-57
2023/10/13 16:09:22;;;;;;;19.77;6.75;;;18.10;99.90;;;;;;4782968;29;20180;-58
2023/10/13 16:11:49;;;;;;;16.30;6.43;;;18.10;99.90;;;;;;4782327;29;20541;-57
2023/10/13 16:14:17;;;;;;;12.50;6.65;;;18.10;99.90;;;;;;4781687;29;20043;-57
2023/10/13 16:16:47;;;;;;;15.82;7.18;;;18.10;99.90;;;;;;4782847;29;20043;-57
2023/10/13 16:19:22;;;;;;;17.23;7.18;;;18.10;99.90;;;;;;4782418;29;20074;-57
2023/10/13 16:21:49;;;;;;;18.98;7.57;;;18.10;99.90;;;;;;4782684;29;20047;-57
2023/10/13 16:24:18;;;;;;;16.05;6.55;;;18.00;99.90;;;;;;4778109;29;20085;-58
2023/10/13 16:26:52;;;;;;;17.23;7.60;;;18.00;99.90;;;;;;4781795;29;20058;-57
2023/10/13 16:29:21;;;;;;;20.25;6.75;;;17.90;99.90;;;;;;4790820;29;20058;-58
2023/10/13 16:31:47;;;;;;;18.60;6.53;;;17.90;99.90;;;;;;4790191;29;20489;-57
2023/10/13 16:34:15;;;;;;;18.00;6.30;;;17.90;99.90;;;;;;4790685;29;20055;-58
2023/10/13 16:36:44;;;;;;;15.48;6.07;;;17.90;99.90;;;;;;4789891;29;20048;-57
2023/10/13 16:39:22;;;;;;;14.25;6.22;;;17.90;99.90;;;;;;4790727;29;20532;-57
2023/10/13 16:41:51;;;;;;;15.30;6.35;;;17.80;99.90;;;;;;4790118;29;20512;-57